sensor_id;sensor_type;location;lat;lon;timestamp;pressure;altitude;pressure_sealevel;temperature;humidity
829;BME280;396;52.558;13.188;2022-09-29T00:00:00;99463.22;;;10.09;100.00
829;BME280;396;52.558;13.188;2022-09-29T00:02:26;99473.94;;;10.05;100.00
829;BME280;396;52.558;13.188;2022-09-29T00:04:54;99469.59;;;10.04;100.00
829;BME280;396;52.558;13.188;2022-09-29T00:07:21;99468.19;;;10.07;100.00
829;BME280;396;52.558;13.188;2022-09-29T00:09:47;99462.97;;;10.02;100.00
829;BME280;396;52.558;13.188;2022-09-29T00:12:14;99472.66;;;10.03;100.00
829;BME280;396;52.558;13.188;2022-09-29T00:14:40;99469.31;;;10.06;100.00
829;BME280;396;52.558;13.188;2022-09-29T00:17:07;99469.31;;;10.06;100.00
829;BME280;396;52.558;13.188;2022-09-29T00:19:33;99474.38;;;10.07;100.00
829;BME280;396;52.558;13.188;2022-09-29T00:22:01;99471.34;;;10.09;100.00
829;BME280;396;52.558;13.188;2022-09-29T00:24:27;99471.19;;;10.14;100.00
829;BME280;396;52.558;13.188;2022-09-29T00:26:55;99479.41;;;10.18;100.00
829;BME280;396;52.558;13.188;2022-09-29T00:29:23;99482.13;;;10.18;100.00
829;BME280;396;52.558;13.188;2022-09-29T00:31:49;99483.09;;;10.13;100.00
829;BME280;396;52.558;13.188;2022-09-29T00:34:16;99480.09;;;10.15;100.00
829;BME280;396;52.558;13.188;2022-09-29T00:36:42;99472.91;;;10.19;100.00
829;BME280;396;52.558;13.188;2022-09-29T00:39:10;99477.66;;;10.22;100.00
829;BME280;396;52.558;13.188;2022-09-29T00:41:38;99475.94;;;10.17;100.00
829;BME280;396;52.558;13.188;2022-09-29T00:47:13;99470.69;;;10.12;100.00
829;BME280;396;52.558;13.188;2022-09-29T00:49:42;99476.47;;;10.02;100.00
829;BME280;396;52.558;13.188;2022-09-29T00:52:13;99465.34;;;9.95;100.00
829;BME280;396;52.558;13.188;2022-09-29T00:54:46;99468.09;;;9.86;100.00
829;BME280;396;52.558;13.188;2022-09-29T00:57:17;99463.34;;;9.83;100.00
829;BME280;396;52.558;13.188;2022-09-29T00:59:48;99465.41;;;9.77;100.00
829;BME280;396;52.558;13.188;2022-09-29T01:02:17;99467.03;;;9.78;100.00
829;BME280;396;52.558;13.188;2022-09-29T01:04:53;99468.88;;;9.86;100.00
829;BME280;396;52.558;13.188;2022-09-29T01:07:21;99478.13;;;9.85;100.00
829;BME280;396;52.558;13.188;2022-09-29T01:09:51;99473.19;;;9.88;100.00
829;BME280;396;52.558;13.188;2022-09-29T01:12:19;99471.13;;;9.84;100.00
829;BME280;396;52.558;13.188;2022-09-29T01:14:46;99477.16;;;9.90;100.00
829;BME280;396;52.558;13.188;2022-09-29T01:17:13;99478.44;;;9.93;100.00
829;BME280;396;52.558;13.188;2022-09-29T01:19:46;99471.25;;;9.97;100.00
829;BME280;396;52.558;13.188;2022-09-29T01:22:31;99480.50;;;9.87;100.00
829;BME280;396;52.558;13.188;2022-09-29T01:25:12;99481.31;;;9.88;100.00
829;BME280;396;52.558;13.188;2022-09-29T01:31:00;99494.16;;;9.91;100.00
829;BME280;396;52.558;13.188;2022-09-29T01:33:33;99488.66;;;9.78;100.00
829;BME280;396;52.558;13.188;2022-09-29T01:36:09;99494.00;;;9.87;100.00
829;BME280;396;52.558;13.188;2022-09-29T01:38:50;99501.06;;;9.79;100.00
829;BME280;396;52.558;13.188;2022-09-29T01:41:25;99502.47;;;9.77;100.00
829;BME280;396;52.558;13.188;2022-09-29T01:43:57;99507.88;;;9.77;100.00
829;BME280;396;52.558;13.188;2022-09-29T01:46:29;99501.69;;;9.76;100.00
829;BME280;396;52.558;13.188;2022-09-29T01:48:58;99508.69;;;9.77;100.00
829;BME280;396;52.558;13.188;2022-09-29T01:51:29;99511.22;;;9.74;100.00
829;BME280;396;52.558;13.188;2022-09-29T01:54:04;99502.81;;;9.75;100.00
829;BME280;396;52.558;13.188;2022-09-29T01:56:36;99506.31;;;9.76;100.00
829;BME280;396;52.558;13.188;2022-09-29T01:59:09;99514.88;;;9.78;100.00
829;BME280;396;52.558;13.188;2022-09-29T02:01:42;99504.38;;;9.85;100.00
829;BME280;396;52.558;13.188;2022-09-29T02:04:13;99520.75;;;9.89;100.00
829;BME280;396;52.558;13.188;2022-09-29T02:06:47;99512.47;;;9.94;100.00
829;BME280;396;52.558;13.188;2022-09-29T02:09:19;99526.59;;;9.99;100.00
829;BME280;396;52.558;13.188;2022-09-29T02:11:48;99521.97;;;10.00;100.00
829;BME280;396;52.558;13.188;2022-09-29T02:14:19;99514.50;;;10.05;100.00
829;BME280;396;52.558;13.188;2022-09-29T02:16:51;99519.59;;;10.07;100.00
829;BME280;396;52.558;13.188;2022-09-29T02:19:21;99519.13;;;10.05;100.00
829;BME280;396;52.558;13.188;2022-09-29T02:21:50;99523.59;;;10.01;100.00
829;BME280;396;52.558;13.188;2022-09-29T02:24:19;99519.16;;;9.96;100.00
829;BME280;396;52.558;13.188;2022-09-29T02:26:46;99529.03;;;9.92;100.00
829;BME280;396;52.558;13.188;2022-09-29T02:29:12;99523.28;;;9.94;100.00
829;BME280;396;52.558;13.188;2022-09-29T02:31:41;99526.63;;;9.91;100.00
829;BME280;396;52.558;13.188;2022-09-29T02:34:12;99522.19;;;9.86;100.00
829;BME280;396;52.558;13.188;2022-09-29T02:36:50;99525.69;;;9.86;100.00
829;BME280;396;52.558;13.188;2022-09-29T02:39:28;99530.13;;;9.91;100.00
829;BME280;396;52.558;13.188;2022-09-29T02:42:06;99528.09;;;9.88;100.00
829;BME280;396;52.558;13.188;2022-09-29T02:44:45;99532.53;;;9.93;100.00
829;BME280;396;52.558;13.188;2022-09-29T02:47:27;99533.78;;;9.95;100.00
829;BME280;396;52.558;13.188;2022-09-29T02:50:12;99538.72;;;9.93;100.00
829;BME280;396;52.558;13.188;2022-09-29T02:52:51;99532.69;;;9.88;100.00
829;BME280;396;52.558;13.188;2022-09-29T02:55:24;99527.41;;;9.91;100.00
829;BME280;396;52.558;13.188;2022-09-29T02:57:57;99534.56;;;9.96;100.00
829;BME280;396;52.558;13.188;2022-09-29T03:00:25;99540.16;;;9.91;100.00
829;BME280;396;52.558;13.188;2022-09-29T03:02:53;99529.66;;;9.89;100.00
829;BME280;396;52.558;13.188;2022-09-29T03:05:21;99538.41;;;9.95;100.00
829;BME280;396;52.558;13.188;2022-09-29T03:07:48;99536.63;;;9.99;100.00
829;BME280;396;52.558;13.188;2022-09-29T03:10:16;99533.28;;;10.02;100.00
829;BME280;396;52.558;13.188;2022-09-29T03:12:43;99536.78;;;10.02;100.00
829;BME280;396;52.558;13.188;2022-09-29T03:15:10;99537.56;;;10.03;100.00
829;BME280;396;52.558;13.188;2022-09-29T03:17:38;99541.22;;;10.07;100.00
829;BME280;396;52.558;13.188;2022-09-29T03:20:05;99535.22;;;10.01;100.00
829;BME280;396;52.558;13.188;2022-09-29T03:22:33;99540.13;;;9.99;100.00
829;BME280;396;52.558;13.188;2022-09-29T03:25:00;99537.75;;;9.98;100.00
829;BME280;396;52.558;13.188;2022-09-29T03:27:26;99538.72;;;9.93;100.00
829;BME280;396;52.558;13.188;2022-09-29T03:29:53;99542.22;;;9.94;100.00
829;BME280;396;52.558;13.188;2022-09-29T03:32:19;99535.53;;;9.91;100.00
829;BME280;396;52.558;13.188;2022-09-29T03:34:46;99541.75;;;9.92;100.00
829;BME280;396;52.558;13.188;2022-09-29T03:37:13;99533.94;;;9.90;100.00
829;BME280;396;52.558;13.188;2022-09-29T03:39:41;99542.84;;;9.91;100.00
829;BME280;396;52.558;13.188;2022-09-29T03:42:07;99545.72;;;9.85;100.00
829;BME280;396;52.558;13.188;2022-09-29T03:44:33;99546.06;;;9.84;100.00
829;BME280;396;52.558;13.188;2022-09-29T03:47:00;99544.31;;;9.79;100.00
829;BME280;396;52.558;13.188;2022-09-29T03:49:27;99547.66;;;9.76;100.00
829;BME280;396;52.558;13.188;2022-09-29T03:51:54;99547.84;;;9.71;100.00
829;BME280;396;52.558;13.188;2022-09-29T03:54:20;99555.78;;;9.76;100.00
829;BME280;396;52.558;13.188;2022-09-29T03:56:49;99555.00;;;9.76;100.00
829;BME280;396;52.558;13.188;2022-09-29T03:59:16;99561.19;;;9.76;100.00
829;BME280;396;52.558;13.188;2022-09-29T04:01:42;99561.97;;;9.77;100.00
829;BME280;396;52.558;13.188;2022-09-29T04:04:09;99559.88;;;9.82;100.00
829;BME280;396;52.558;13.188;2022-09-29T04:06:36;99564.66;;;9.85;100.00
829;BME280;396;52.558;13.188;2022-09-29T04:09:03;99567.38;;;9.85;100.00
829;BME280;396;52.558;13.188;2022-09-29T04:11:29;99577.91;;;9.78;100.00
829;BME280;396;52.558;13.188;2022-09-29T04:13:57;99562.78;;;9.77;100.00
829;BME280;396;52.558;13.188;2022-09-29T04:16:24;99577.91;;;9.78;100.00
829;BME280;396;52.558;13.188;2022-09-29T04:18:50;99579.31;;;9.76;100.00
829;BME280;396;52.558;13.188;2022-09-29T04:21:17;99567.88;;;9.70;100.00
829;BME280;396;52.558;13.188;2022-09-29T04:23:43;99573.59;;;9.77;100.00
829;BME280;396;52.558;13.188;2022-09-29T04:26:10;99575.03;;;9.83;100.00
829;BME280;396;52.558;13.188;2022-09-29T04:28:37;99580.59;;;9.78;100.00
829;BME280;396;52.558;13.188;2022-09-29T04:31:05;99582.50;;;9.78;100.00
829;BME280;396;52.558;13.188;2022-09-29T04:33:31;99579.00;;;9.77;100.00
829;BME280;396;52.558;13.188;2022-09-29T04:35:58;99579.00;;;9.77;100.00
829;BME280;396;52.558;13.188;2022-09-29T04:38:25;99580.91;;;9.77;100.00
829;BME280;396;52.558;13.188;2022-09-29T04:40:51;99584.72;;;9.84;100.00
829;BME280;396;52.558;13.188;2022-09-29T04:43:18;99584.22;;;9.82;100.00
829;BME280;396;52.558;13.188;2022-09-29T04:45:44;99583.94;;;9.84;100.00
829;BME280;396;52.558;13.188;2022-09-29T04:48:12;99585.03;;;9.92;100.00
829;BME280;396;52.558;13.188;2022-09-29T04:50:39;99593.00;;;9.88;100.00
829;BME280;396;52.558;13.188;2022-09-29T04:53:06;99591.53;;;9.91;100.00
829;BME280;396;52.558;13.188;2022-09-29T04:55:32;99602.69;;;9.89;100.00
829;BME280;396;52.558;13.188;2022-09-29T04:57:59;99599.34;;;9.92;100.00
829;BME280;396;52.558;13.188;2022-09-29T05:00:25;99600.16;;;9.84;100.00
829;BME280;396;52.558;13.188;2022-09-29T05:02:52;99601.28;;;9.83;100.00
829;BME280;396;52.558;13.188;2022-09-29T05:05:20;99599.38;;;9.83;100.00
829;BME280;396;52.558;13.188;2022-09-29T05:07:46;99605.06;;;9.82;100.00
829;BME280;396;52.558;13.188;2022-09-29T05:10:13;99612.22;;;9.86;100.00
829;BME280;396;52.558;13.188;2022-09-29T05:12:39;99610.31;;;9.87;100.00
829;BME280;396;52.558;13.188;2022-09-29T05:15:07;99606.97;;;9.90;100.00
829;BME280;396;52.558;13.188;2022-09-29T05:17:33;99610.19;;;9.83;100.00
829;BME280;396;52.558;13.188;2022-09-29T05:20:00;99616.56;;;9.88;100.00
829;BME280;396;52.558;13.188;2022-09-29T05:22:28;99619.09;;;9.84;100.00
829;BME280;396;52.558;13.188;2022-09-29T05:24:54;99607.94;;;9.85;100.00
829;BME280;396;52.558;13.188;2022-09-29T05:27:21;99616.06;;;9.85;100.00
829;BME280;396;52.558;13.188;2022-09-29T05:29:47;99615.72;;;9.87;100.00
829;BME280;396;52.558;13.188;2022-09-29T05:32:14;99615.09;;;9.90;100.00
829;BME280;396;52.558;13.188;2022-09-29T05:34:41;99618.91;;;9.98;100.00
829;BME280;396;52.558;13.188;2022-09-29T05:37:07;99623.69;;;10.01;100.00
829;BME280;396;52.558;13.188;2022-09-29T05:39:36;99620.16;;;10.00;100.00
829;BME280;396;52.558;13.188;2022-09-29T05:42:04;99620.31;;;10.04;100.00
829;BME280;396;52.558;13.188;2022-09-29T05:44:31;99617.31;;;10.05;100.00
829;BME280;396;52.558;13.188;2022-09-29T05:46:58;99617.44;;;10.09;100.00
829;BME280;396;52.558;13.188;2022-09-29T05:49:24;99620.16;;;10.09;100.00
829;BME280;396;52.558;13.188;2022-09-29T05:51:51;99620.16;;;10.09;100.00
829;BME280;396;52.558;13.188;2022-09-29T05:54:18;99623.34;;;10.11;100.00
829;BME280;396;52.558;13.188;2022-09-29T05:56:46;99615.88;;;10.08;100.00
829;BME280;396;52.558;13.188;2022-09-29T05:59:13;99624.63;;;10.05;100.00
829;BME280;396;52.558;13.188;2022-09-29T06:01:39;99627.34;;;10.05;100.00
829;BME280;396;52.558;13.188;2022-09-29T06:04:06;99630.06;;;10.05;100.00
829;BME280;396;52.558;13.188;2022-09-29T06:06:32;99622.06;;;10.08;100.00
829;BME280;396;52.558;13.188;2022-09-29T06:09:00;99630.19;;;10.08;100.00
829;BME280;396;52.558;13.188;2022-09-29T06:11:28;99627.81;;;10.07;100.00
829;BME280;396;52.558;13.188;2022-09-29T06:13:57;99634.34;;;10.06;100.00
829;BME280;396;52.558;13.188;2022-09-29T06:16:25;99627.78;;;10.16;100.00
829;BME280;396;52.558;13.188;2022-09-29T06:18:52;99631.59;;;10.23;100.00
829;BME280;396;52.558;13.188;2022-09-29T06:21:21;99635.75;;;10.29;100.00
829;BME280;396;52.558;13.188;2022-09-29T06:23:49;99637.66;;;10.29;100.00
829;BME280;396;52.558;13.188;2022-09-29T06:26:17;99633.03;;;10.29;100.00
829;BME280;396;52.558;13.188;2022-09-29T06:28:44;99637.81;;;10.32;100.00
829;BME280;396;52.558;13.188;2022-09-29T06:31:13;99640.34;;;10.38;100.00
829;BME280;396;52.558;13.188;2022-09-29T06:33:41;99637.81;;;10.41;100.00
829;BME280;396;52.558;13.188;2022-09-29T06:36:13;99638.25;;;10.43;100.00
829;BME280;396;52.558;13.188;2022-09-29T06:38:58;99641.44;;;10.45;100.00
829;BME280;396;52.558;13.188;2022-09-29T06:41:25;99636.31;;;10.52;100.00
829;BME280;396;52.558;13.188;2022-09-29T06:43:53;99639.19;;;10.56;100.00
829;BME280;396;52.558;13.188;2022-09-29T06:46:21;99644.25;;;10.57;100.00
829;BME280;396;52.558;13.188;2022-09-29T06:48:48;99639.00;;;10.61;100.00
829;BME280;396;52.558;13.188;2022-09-29T06:51:14;99637.72;;;10.67;100.00
829;BME280;396;52.558;13.188;2022-09-29T06:53:40;99642.78;;;10.69;100.00
829;BME280;396;52.558;13.188;2022-09-29T06:56:08;99647.25;;;10.73;100.00
829;BME280;396;52.558;13.188;2022-09-29T06:58:34;99642.59;;;10.74;100.00
829;BME280;396;52.558;13.188;2022-09-29T07:01:02;99648.38;;;10.72;100.00
829;BME280;396;52.558;13.188;2022-09-29T07:03:32;99648.03;;;10.74;100.00
829;BME280;396;52.558;13.188;2022-09-29T07:06:01;99643.41;;;10.74;100.00
829;BME280;396;52.558;13.188;2022-09-29T07:08:27;99655.19;;;10.78;100.00
829;BME280;396;52.558;13.188;2022-09-29T07:10:55;99649.44;;;10.80;100.00
829;BME280;396;52.558;13.188;2022-09-29T07:13:21;99651.81;;;10.81;100.00
829;BME280;396;52.558;13.188;2022-09-29T07:15:48;99655.16;;;10.87;100.00
829;BME280;396;52.558;13.188;2022-09-29T07:18:14;99661.97;;;10.93;100.00
829;BME280;396;52.558;13.188;2022-09-29T07:20:42;99663.38;;;10.99;100.00
829;BME280;396;52.558;13.188;2022-09-29T07:23:08;99665.56;;;11.06;100.00
829;BME280;396;52.558;13.188;2022-09-29T07:25:36;99672.41;;;11.12;100.00
829;BME280;396;52.558;13.188;2022-09-29T07:28:03;99674.00;;;11.13;100.00
829;BME280;396;52.558;13.188;2022-09-29T07:30:29;99678.56;;;11.21;100.00
829;BME280;396;52.558;13.188;2022-09-29T07:32:56;99680.44;;;11.29;100.00
829;BME280;396;52.558;13.188;2022-09-29T07:35:23;99678.84;;;11.28;100.00
829;BME280;396;52.558;13.188;2022-09-29T07:37:51;99685.88;;;11.29;100.00
829;BME280;396;52.558;13.188;2022-09-29T07:40:18;99688.75;;;11.24;100.00
829;BME280;396;52.558;13.188;2022-09-29T07:42:45;99695.59;;;11.30;100.00
829;BME280;396;52.558;13.188;2022-09-29T07:45:11;99691.25;;;11.38;100.00
829;BME280;396;52.558;13.188;2022-09-29T07:47:38;99696.66;;;11.38;99.46
829;BME280;396;52.558;13.188;2022-09-29T07:50:05;99696.19;;;11.36;99.56
829;BME280;396;52.558;13.188;2022-09-29T07:52:32;99693.81;;;11.34;99.33
829;BME280;396;52.558;13.188;2022-09-29T07:55:00;99703.53;;;11.35;99.18
829;BME280;396;52.558;13.188;2022-09-29T07:57:26;99711.00;;;11.39;100.00
829;BME280;396;52.558;13.188;2022-09-29T07:59:52;99710.44;;;11.54;100.00
829;BME280;396;52.558;13.188;2022-09-29T08:02:22;99700.19;;;11.59;99.52
829;BME280;396;52.558;13.188;2022-09-29T08:04:48;99713.69;;;11.47;98.27
829;BME280;396;52.558;13.188;2022-09-29T08:07:15;99718.31;;;11.47;99.01
829;BME280;396;52.558;13.188;2022-09-29T08:09:41;99713.13;;;11.54;99.55
829;BME280;396;52.558;13.188;2022-09-29T08:12:11;99716.94;;;11.61;98.58
829;BME280;396;52.558;13.188;2022-09-29T08:14:38;99716.28;;;11.65;98.37
829;BME280;396;52.558;13.188;2022-09-29T08:17:04;99718.16;;;11.64;98.00
829;BME280;396;52.558;13.188;2022-09-29T08:19:31;99729.31;;;11.71;98.20
829;BME280;396;52.558;13.188;2022-09-29T08:21:57;99725.13;;;11.82;97.78
829;BME280;396;52.558;13.188;2022-09-29T08:24:23;99718.63;;;11.96;97.16
829;BME280;396;52.558;13.188;2022-09-29T08:26:50;99726.38;;;12.06;96.54
829;BME280;396;52.558;13.188;2022-09-29T08:29:18;99725.59;;;12.05;94.99
829;BME280;396;52.558;13.188;2022-09-29T08:31:45;99734.09;;;12.16;94.55
829;BME280;396;52.558;13.188;2022-09-29T08:34:12;99730.41;;;12.21;94.42
829;BME280;396;52.558;13.188;2022-09-29T08:36:49;99731.06;;;12.18;93.89
829;BME280;396;52.558;13.188;2022-09-29T08:39:25;99731.19;;;12.21;94.25
829;BME280;396;52.558;13.188;2022-09-29T08:42:20;99733.44;;;12.19;93.63
829;BME280;396;52.558;13.188;2022-09-29T09:02:00;99758.09;;;12.14;93.14
829;BME280;396;52.558;13.188;2022-09-29T09:08:07;99755.75;;;12.25;92.37
829;BME280;396;52.558;13.188;2022-09-29T09:10:43;99756.47;;;12.34;93.02
829;BME280;396;52.558;13.188;2022-09-29T09:13:47;99754.88;;;12.33;91.43
829;BME280;396;52.558;13.188;2022-09-29T09:16:35;99751.31;;;12.20;91.38
829;BME280;396;52.558;13.188;2022-09-29T09:25:04;99758.81;;;12.23;90.61
829;BME280;396;52.558;13.188;2022-09-29T09:27:39;99759.66;;;12.15;92.20
829;BME280;396;52.558;13.188;2022-09-29T09:30:12;99760.06;;;12.26;92.43
829;BME280;396;52.558;13.188;2022-09-29T09:32:43;99764.03;;;12.28;92.43
829;BME280;396;52.558;13.188;2022-09-29T09:35:27;99756.81;;;12.32;92.12
829;BME280;396;52.558;13.188;2022-09-29T09:37:58;99763.81;;;12.33;90.76
829;BME280;396;52.558;13.188;2022-09-29T09:40:33;99765.31;;;12.31;92.06
829;BME280;396;52.558;13.188;2022-09-29T09:43:06;99760.75;;;12.35;90.15
829;BME280;396;52.558;13.188;2022-09-29T09:45:40;99777.69;;;12.41;90.70
829;BME280;396;52.558;13.188;2022-09-29T09:48:11;99779.25;;;12.42;89.41
829;BME280;396;52.558;13.188;2022-09-29T09:50:40;99773.41;;;12.52;90.62
829;BME280;396;52.558;13.188;2022-09-29T09:53:11;99778.22;;;12.67;91.19
829;BME280;396;52.558;13.188;2022-09-29T09:55:41;99778.28;;;12.79;89.35
829;BME280;396;52.558;13.188;2022-09-29T09:58:31;99785.91;;;12.98;89.70
829;BME280;396;52.558;13.188;2022-09-29T10:01:02;99776.50;;;13.08;88.52
829;BME280;396;52.558;13.188;2022-09-29T10:03:30;99775.44;;;13.33;88.61
829;BME280;396;52.558;13.188;2022-09-29T10:05:57;99786.09;;;13.51;88.55
829;BME280;396;52.558;13.188;2022-09-29T10:08:25;99796.53;;;13.61;84.93
829;BME280;396;52.558;13.188;2022-09-29T10:10:56;99788.72;;;13.59;84.08
829;BME280;396;52.558;13.188;2022-09-29T10:13:24;99783.84;;;13.65;85.15
829;BME280;396;52.558;13.188;2022-09-29T10:15:53;99788.69;;;13.72;84.42
829;BME280;396;52.558;13.188;2022-09-29T10:18:24;99796.41;;;13.82;82.33
829;BME280;396;52.558;13.188;2022-09-29T10:20:53;99795.28;;;13.83;80.52
829;BME280;396;52.558;13.188;2022-09-29T10:23:25;99793.56;;;13.78;80.96
829;BME280;396;52.558;13.188;2022-09-29T10:25:56;99796.28;;;13.78;81.45
829;BME280;396;52.558;13.188;2022-09-29T10:28:24;99798.09;;;13.86;81.80
829;BME280;396;52.558;13.188;2022-09-29T10:30:51;99795.69;;;13.97;80.57
829;BME280;396;52.558;13.188;2022-09-29T10:33:22;99798.53;;;14.01;79.19
829;BME280;396;52.558;13.188;2022-09-29T10:36:03;99793.31;;;14.08;79.38
829;BME280;396;52.558;13.188;2022-09-29T10:38:31;99790.25;;;14.37;80.06
829;BME280;396;52.558;13.188;2022-09-29T10:41:01;99795.19;;;14.60;74.81
829;BME280;396;52.558;13.188;2022-09-29T10:43:32;99799.03;;;14.71;73.89
829;BME280;396;52.558;13.188;2022-09-29T10:46:00;99803.97;;;14.53;72.56
829;BME280;396;52.558;13.188;2022-09-29T10:48:26;99798.69;;;14.32;72.85
829;BME280;396;52.558;13.188;2022-09-29T10:50:55;99799.28;;;14.26;73.44
829;BME280;396;52.558;13.188;2022-09-29T10:53:32;99802.13;;;14.17;73.99
829;BME280;396;52.558;13.188;2022-09-29T10:56:05;99801.91;;;14.10;74.19
829;BME280;396;52.558;13.188;2022-09-29T10:58:36;99807.63;;;13.93;76.58
829;BME280;396;52.558;13.188;2022-09-29T11:01:07;99806.59;;;13.85;76.85
829;BME280;396;52.558;13.188;2022-09-29T11:03:37;99810.56;;;13.87;75.37
829;BME280;396;52.558;13.188;2022-09-29T11:06:07;99815.22;;;13.87;75.04
829;BME280;396;52.558;13.188;2022-09-29T11:08:54;99824.41;;;13.95;74.85
829;BME280;396;52.558;13.188;2022-09-29T11:11:24;99816.47;;;13.89;75.32
829;BME280;396;52.558;13.188;2022-09-29T11:13:52;99813.41;;;13.91;76.13
829;BME280;396;52.558;13.188;2022-09-29T11:16:25;99818.97;;;13.95;75.74
829;BME280;396;52.558;13.188;2022-09-29T11:18:53;99820.09;;;13.94;76.80
829;BME280;396;52.558;13.188;2022-09-29T11:24:28;99817.91;;;14.64;76.67
829;BME280;396;52.558;13.188;2022-09-29T11:27:05;99820.28;;;15.09;67.13
829;BME280;396;52.558;13.188;2022-09-29T11:29:41;99829.59;;;15.08;65.42
829;BME280;396;52.558;13.188;2022-09-29T11:32:27;99830.72;;;14.92;64.85
829;BME280;396;52.558;13.188;2022-09-29T11:35:10;99834.44;;;14.99;66.39
829;BME280;396;52.558;13.188;2022-09-29T11:37:48;99837.25;;;15.03;66.28
829;BME280;396;52.558;13.188;2022-09-29T11:40:28;99829.59;;;14.93;65.87
829;BME280;396;52.558;13.188;2022-09-29T11:43:10;99828.84;;;14.80;65.47
829;BME280;396;52.558;13.188;2022-09-29T11:45:47;99836.72;;;14.69;65.25
829;BME280;396;52.558;13.188;2022-09-29T11:50:53;99834.53;;;15.03;64.48
829;BME280;396;52.558;13.188;2022-09-29T11:53:39;99834.59;;;16.17;64.08
829;BME280;396;52.558;13.188;2022-09-29T11:56:19;99832.00;;;17.67;56.54
829;BME280;396;52.558;13.188;2022-09-29T11:58:58;99831.25;;;18.23;55.81
829;BME280;396;52.558;13.188;2022-09-29T12:01:37;99837.69;;;18.68;55.68
829;BME280;396;52.558;13.188;2022-09-29T12:04:28;99844.50;;;19.52;49.47
829;BME280;396;52.558;13.188;2022-09-29T12:07:04;99843.66;;;19.93;49.32
829;BME280;396;52.558;13.188;2022-09-29T12:09:59;99840.19;;;19.55;50.61
829;BME280;396;52.558;13.188;2022-09-29T12:12:33;99850.84;;;19.19;48.55
829;BME280;396;52.558;13.188;2022-09-29T12:15:20;99845.31;;;18.78;49.68
829;BME280;396;52.558;13.188;2022-09-29T12:17:51;99844.28;;;18.60;50.63
829;BME280;396;52.558;13.188;2022-09-29T12:20:23;99840.75;;;18.29;51.28
829;BME280;396;52.558;13.188;2022-09-29T12:22:52;99844.38;;;18.07;52.93
829;BME280;396;52.558;13.188;2022-09-29T12:25:22;99846.00;;;17.85;53.87
829;BME280;396;52.558;13.188;2022-09-29T12:27:59;99842.59;;;17.46;53.78
829;BME280;396;52.558;13.188;2022-09-29T12:30:33;99831.03;;;17.10;56.02
829;BME280;396;52.558;13.188;2022-09-29T12:33:05;99831.69;;;16.64;56.22
829;BME280;396;52.558;13.188;2022-09-29T12:35:35;99826.28;;;16.49;60.04
829;BME280;396;52.558;13.188;2022-09-29T12:38:11;99828.97;;;16.10;57.78
829;BME280;396;52.558;13.188;2022-09-29T12:40:44;99835.47;;;15.86;59.92
829;BME280;396;52.558;13.188;2022-09-29T12:43:16;99841.53;;;15.63;57.62
829;BME280;396;52.558;13.188;2022-09-29T12:45:51;99836.06;;;15.48;58.92
829;BME280;396;52.558;13.188;2022-09-29T12:48:30;99820.28;;;15.09;57.10
829;BME280;396;52.558;13.188;2022-09-29T12:51:02;99832.53;;;15.16;57.68
829;BME280;396;52.558;13.188;2022-09-29T12:53:38;99837.38;;;15.22;60.02
829;BME280;396;52.558;13.188;2022-09-29T12:56:09;99834.28;;;15.08;61.08
829;BME280;396;52.558;13.188;2022-09-29T12:58:42;99841.69;;;15.23;59.43
829;BME280;396;52.558;13.188;2022-09-29T13:01:20;99839.44;;;15.73;61.41
829;BME280;396;52.558;13.188;2022-09-29T13:04:27;99843.28;;;16.58;56.76
829;BME280;396;52.558;13.188;2022-09-29T13:07:27;99854.94;;;18.35;54.56
829;BME280;396;52.558;13.188;2022-09-29T13:10:08;99862.50;;;19.94;49.33
829;BME280;396;52.558;13.188;2022-09-29T13:12:55;99865.59;;;20.48;42.94
829;BME280;396;52.558;13.188;2022-09-29T13:15:38;99866.69;;;21.34;44.26
829;BME280;396;52.558;13.188;2022-09-29T13:18:28;99863.41;;;20.92;40.55
829;BME280;396;52.558;13.188;2022-09-29T13:21:04;99860.44;;;20.42;43.26
829;BME280;396;52.558;13.188;2022-09-29T13:23:53;99866.22;;;21.14;42.84
829;BME280;396;52.558;13.188;2022-09-29T13:26:49;99870.22;;;22.06;40.96
829;BME280;396;52.558;13.188;2022-09-29T13:29:22;99870.06;;;22.77;38.97
829;BME280;396;52.558;13.188;2022-09-29T13:31:50;99884.94;;;23.05;39.37
829;BME280;396;52.558;13.188;2022-09-29T13:34:27;99874.16;;;22.33;38.21
829;BME280;396;52.558;13.188;2022-09-29T13:37:03;99876.13;;;22.22;39.05
829;BME280;396;52.558;13.188;2022-09-29T13:39:31;99884.03;;;22.20;38.36
829;BME280;396;52.558;13.188;2022-09-29T13:42:35;99872.16;;;22.34;39.21
829;BME280;396;52.558;13.188;2022-09-29T13:45:14;99879.66;;;22.26;39.55
829;BME280;396;52.558;13.188;2022-09-29T13:47:44;99875.38;;;21.39;40.48
829;BME280;396;52.558;13.188;2022-09-29T13:53:34;99880.28;;;20.11;44.44
829;BME280;396;52.558;13.188;2022-09-29T13:56:09;99879.25;;;19.78;45.25
829;BME280;396;52.558;13.188;2022-09-29T13:58:56;99875.25;;;19.69;45.84
829;BME280;396;52.558;13.188;2022-09-29T14:01:32;99881.81;;;19.57;45.09
829;BME280;396;52.558;13.188;2022-09-29T14:07:01;99880.56;;;19.10;45.80
829;BME280;396;52.558;13.188;2022-09-29T14:09:32;99878.94;;;18.45;45.87
829;BME280;396;52.558;13.188;2022-09-29T14:12:01;99883.25;;;17.89;48.10
829;BME280;396;52.558;13.188;2022-09-29T14:14:32;99881.03;;;17.53;51.86
829;BME280;396;52.558;13.188;2022-09-29T14:17:03;99892.38;;;17.09;55.80
829;BME280;396;52.558;13.188;2022-09-29T14:22:54;99890.16;;;16.60;58.84
829;BME280;396;52.558;13.188;2022-09-29T14:25:53;99887.72;;;16.35;62.06
829;BME280;396;52.558;13.188;2022-09-29T14:28:24;99889.25;;;16.17;62.94
829;BME280;396;52.558;13.188;2022-09-29T14:30:56;99892.63;;;15.95;65.59
829;BME280;396;52.558;13.188;2022-09-29T14:33:29;99892.28;;;15.80;66.85
829;BME280;396;52.558;13.188;2022-09-29T14:36:03;99885.06;;;15.72;67.74
829;BME280;396;52.558;13.188;2022-09-29T14:38:32;99884.88;;;15.65;70.27